createdAt,value
2019-06-15T00:00:24.991Z,13.27
2019-06-15T00:02:54.497Z,13.73
2019-06-15T00:05:23.973Z,13.70
2019-06-15T00:07:53.396Z,15.47
2019-06-15T00:10:22.828Z,13.83
2019-06-15T00:12:52.296Z,15.30
2019-06-15T00:15:21.819Z,14.93
2019-06-15T00:17:51.282Z,15.80
2019-06-15T00:20:20.783Z,17.63
2019-06-15T00:22:50.274Z,21.00
2019-06-15T00:25:19.884Z,17.30
2019-06-15T00:27:49.326Z,15.90
2019-06-15T00:30:18.823Z,14.97
2019-06-15T00:32:48.476Z,15.50
2019-06-15T00:35:18.009Z,16.47
2019-06-15T00:37:47.435Z,15.63
2019-06-15T00:40:16.995Z,15.77
2019-06-15T00:42:46.426Z,14.33
2019-06-15T00:45:16.120Z,16.37
2019-06-15T00:47:45.562Z,16.47
2019-06-15T00:50:14.984Z,16.50
2019-06-15T00:52:44.479Z,14.80
2019-06-15T00:55:13.881Z,15.03
2019-06-15T00:57:43.380Z,16.17
2019-06-15T01:00:12.860Z,16.70
2019-06-15T01:02:42.359Z,16.00
2019-06-15T01:05:13.414Z,15.77
2019-06-15T01:07:42.927Z,16.03
2019-06-15T01:10:12.515Z,16.73
2019-06-15T01:12:42.019Z,15.60
2019-06-15T01:15:11.490Z,15.50
2019-06-15T01:17:40.961Z,16.47
2019-06-15T01:20:10.466Z,16.10
2019-06-15T01:22:39.865Z,24.20
2019-06-15T01:25:10.778Z,16.67
2019-06-15T01:27:40.661Z,16.87
2019-06-15T01:30:11.161Z,15.83
2019-06-15T01:32:40.632Z,16.03
2019-06-15T01:35:10.703Z,14.83
2019-06-15T01:37:40.274Z,16.63
2019-06-15T01:40:10.594Z,15.10
2019-06-15T01:42:40.077Z,15.97
2019-06-15T01:45:09.587Z,17.93
2019-06-15T01:47:39.060Z,15.13
2019-06-15T01:50:08.565Z,16.97
2019-06-15T01:52:38.054Z,15.83
2019-06-15T01:55:19.898Z,16.70
2019-06-15T01:57:39.224Z,17.40
2019-06-15T02:00:08.713Z,15.80
2019-06-15T02:02:38.134Z,15.03
2019-06-15T02:05:08.211Z,16.00
2019-06-15T02:07:37.703Z,15.90
2019-06-15T02:10:08.097Z,15.53
2019-06-15T02:12:37.616Z,16.23
2019-06-15T02:15:07.486Z,18.07
2019-06-15T02:17:36.990Z,27.90
2019-06-15T02:20:08.917Z,18.97
2019-06-15T02:22:38.416Z,22.03
2019-06-15T02:25:07.894Z,20.27
2019-06-15T02:27:37.411Z,16.67
2019-06-15T02:30:07.443Z,17.47
2019-06-15T02:32:36.953Z,16.53
2019-06-15T02:35:07.718Z,15.60
2019-06-15T02:37:37.202Z,16.70
2019-06-15T02:40:06.883Z,17.47
2019-06-15T02:42:36.375Z,16.17
2019-06-15T02:45:07.853Z,18.30
2019-06-15T02:47:37.360Z,17.57
2019-06-15T02:50:09.943Z,17.37
2019-06-15T02:52:39.376Z,16.20
2019-06-15T02:55:08.846Z,16.30
2019-06-15T02:57:38.453Z,17.17
2019-06-15T03:00:11.583Z,17.10
2019-06-15T03:02:41.131Z,17.23
2019-06-15T03:05:10.644Z,17.47
2019-06-15T03:07:40.257Z,15.53
2019-06-15T03:10:09.752Z,17.40
2019-06-15T03:12:39.455Z,18.60
2019-06-15T03:15:08.956Z,16.53
2019-06-15T03:17:38.365Z,15.17
2019-06-15T03:20:08.374Z,19.83
2019-06-15T03:22:37.841Z,16.03
2019-06-15T03:25:10.974Z,15.47
2019-06-15T03:27:40.438Z,14.67
2019-06-15T03:30:09.944Z,14.43
2019-06-15T03:32:39.436Z,14.80
2019-06-15T03:35:10.290Z,16.90
2019-06-15T03:37:39.769Z,14.73
2019-06-15T03:40:09.293Z,15.43
2019-06-15T03:42:38.825Z,15.57
2019-06-15T03:45:08.928Z,15.57
2019-06-15T03:47:38.407Z,14.23
2019-06-15T03:50:08.213Z,16.33
2019-06-15T03:52:37.619Z,19.00
2019-06-15T03:55:07.554Z,15.87
2019-06-15T03:57:37.032Z,14.80
2019-06-15T04:00:27.172Z,14.80
2019-06-15T04:02:56.656Z,14.60
2019-06-15T04:05:26.141Z,15.50
2019-06-15T04:07:55.734Z,14.67
2019-06-15T04:10:25.251Z,15.73
2019-06-15T04:12:54.726Z,15.30
2019-06-15T04:15:24.217Z,15.00
2019-06-15T04:17:53.612Z,15.23
2019-06-15T04:20:23.034Z,15.70
2019-06-15T04:22:52.519Z,15.90
2019-06-15T04:25:22.055Z,17.53
2019-06-15T04:27:51.495Z,16.90
2019-06-15T04:30:21.071Z,15.93
2019-06-15T04:32:50.545Z,18.13
2019-06-15T04:35:20.116Z,19.07
2019-06-15T04:37:49.601Z,16.50
2019-06-15T04:40:19.098Z,18.87
2019-06-15T04:42:48.570Z,19.20
2019-06-15T04:45:18.081Z,16.83
2019-06-15T04:47:47.675Z,18.60
2019-06-15T04:50:17.213Z,17.63
2019-06-15T04:52:46.844Z,17.03
2019-06-15T04:55:16.288Z,18.60
2019-06-15T04:57:45.811Z,16.30
2019-06-15T05:00:15.286Z,18.80
2019-06-15T05:02:44.779Z,17.87
2019-06-15T05:05:14.260Z,18.30
2019-06-15T05:07:43.758Z,16.70
2019-06-15T05:10:13.258Z,16.67
2019-06-15T05:12:42.767Z,16.63
2019-06-15T05:15:12.342Z,16.60
2019-06-15T05:17:41.838Z,17.40
2019-06-15T05:20:11.326Z,16.93
2019-06-15T05:22:40.745Z,15.53
2019-06-15T05:25:10.229Z,19.37
2019-06-15T05:27:39.719Z,18.77
2019-06-15T05:30:09.236Z,16.90
2019-06-15T05:32:38.742Z,25.13
2019-06-15T05:35:08.522Z,17.33
2019-06-15T05:37:38.056Z,18.50
2019-06-15T05:40:08.345Z,15.97
2019-06-15T05:42:38.251Z,17.73
2019-06-15T05:45:10.993Z,15.00
2019-06-15T05:47:40.584Z,17.27
2019-06-15T05:50:10.044Z,18.43
2019-06-15T05:52:39.543Z,16.17
2019-06-15T05:55:09.022Z,16.03
2019-06-15T05:57:38.528Z,16.00
2019-06-15T06:00:11.944Z,17.23
2019-06-15T06:02:41.503Z,15.20
2019-06-15T06:05:11.978Z,19.10
2019-06-15T06:07:41.408Z,16.83
2019-06-15T06:10:11.206Z,17.37
2019-06-15T06:12:40.813Z,16.37
2019-06-15T06:15:10.401Z,17.33
2019-06-15T06:17:42.298Z,14.93
2019-06-15T06:20:11.115Z,18.93
2019-06-15T06:22:40.567Z,15.03
2019-06-15T06:25:10.140Z,14.70
2019-06-15T06:27:39.617Z,15.97
2019-06-15T06:30:11.017Z,16.63
2019-06-15T06:32:40.523Z,17.27
2019-06-15T06:35:10.066Z,17.03
2019-06-15T06:37:39.572Z,17.47
2019-06-15T06:40:12.457Z,16.90
2019-06-15T06:42:42.057Z,15.93
2019-06-15T06:45:11.534Z,14.77
2019-06-15T06:47:41.611Z,15.27
2019-06-15T06:50:11.280Z,15.47
2019-06-15T06:52:40.785Z,15.17
2019-06-15T06:55:10.269Z,15.27
2019-06-15T06:57:51.899Z,15.67
2019-06-15T07:00:11.015Z,15.53
2019-06-15T07:02:40.655Z,16.23
2019-06-15T07:05:10.304Z,16.63
2019-06-15T07:07:39.836Z,15.93
2019-06-15T07:10:09.310Z,16.73
2019-06-15T07:12:38.840Z,16.03
2019-06-15T07:15:08.718Z,14.37
2019-06-15T07:17:38.365Z,15.23
2019-06-15T07:20:09.908Z,18.37
2019-06-15T07:22:39.321Z,14.73
2019-06-15T07:25:08.846Z,15.13
2019-06-15T07:27:38.330Z,15.87
2019-06-15T07:30:10.463Z,19.80
2019-06-15T07:32:40.133Z,16.70
2019-06-15T07:35:09.626Z,16.87
2019-06-15T07:37:39.115Z,15.50
2019-06-15T07:40:08.624Z,15.20
2019-06-15T07:42:39.414Z,24.13
2019-06-15T07:45:09.341Z,14.80
2019-06-15T07:47:38.866Z,14.47
2019-06-15T07:50:08.405Z,15.80
2019-06-15T07:52:37.886Z,16.53
2019-06-15T07:55:10.501Z,16.33
2019-06-15T07:57:39.949Z,18.50
2019-06-15T08:00:09.515Z,18.23
2019-06-15T08:02:38.984Z,15.00
2019-06-15T08:05:08.484Z,16.27
2019-06-15T08:07:37.885Z,13.93
2019-06-15T08:10:08.190Z,14.60
2019-06-15T08:12:37.674Z,15.93
2019-06-15T08:15:07.972Z,15.83
2019-06-15T08:17:37.746Z,16.03
2019-06-15T08:20:11.163Z,16.20
2019-06-15T08:22:40.711Z,16.33
2019-06-15T08:25:10.230Z,14.83
2019-06-15T08:27:39.764Z,15.60
2019-06-15T08:30:09.709Z,14.27
2019-06-15T08:32:39.198Z,16.60
2019-06-15T08:35:08.867Z,15.30
2019-06-15T08:37:38.354Z,14.90
2019-06-15T08:40:08.023Z,18.07
2019-06-15T08:42:37.527Z,15.57
2019-06-15T08:45:07.718Z,14.77
2019-06-15T08:47:37.216Z,14.77
2019-06-15T08:50:06.980Z,16.20
2019-06-15T08:52:36.487Z,15.33
2019-06-15T08:55:06.738Z,14.60
2019-06-15T08:57:36.136Z,16.90
2019-06-15T09:00:09.319Z,31.27
2019-06-15T09:02:38.876Z,16.70
2019-06-15T09:05:08.374Z,17.97
2019-06-15T09:07:37.915Z,15.63
2019-06-15T09:10:08.678Z,17.37
2019-06-15T09:12:38.171Z,18.60
2019-06-15T09:15:08.258Z,19.00
2019-06-15T09:17:38.522Z,17.30
2019-06-15T09:20:10.396Z,18.13
2019-06-15T09:22:39.979Z,17.20
2019-06-15T09:25:09.699Z,17.53
2019-06-15T09:27:39.192Z,16.50
2019-06-15T09:30:09.492Z,17.07
2019-06-15T09:32:39.030Z,17.37
2019-06-15T09:35:08.517Z,18.70
2019-06-15T09:37:38.020Z,14.10
2019-06-15T09:40:07.828Z,15.87
2019-06-15T09:42:37.307Z,14.30
2019-06-15T09:45:10.370Z,14.30
2019-06-15T09:47:39.836Z,15.53
2019-06-15T09:50:09.615Z,14.67
2019-06-15T09:52:39.036Z,15.53
2019-06-15T09:55:08.516Z,15.80
2019-06-15T09:57:38.005Z,15.40
2019-06-15T10:00:09.046Z,16.20
2019-06-15T10:02:39.145Z,14.73
2019-06-15T10:05:08.929Z,13.87
2019-06-15T10:07:38.433Z,13.77
2019-06-15T10:10:08.036Z,13.80
2019-06-15T10:12:37.524Z,12.10
2019-06-15T10:15:08.096Z,13.53
2019-06-15T10:17:37.562Z,15.90
2019-06-15T10:20:07.757Z,13.33
2019-06-15T10:22:37.457Z,13.00
2019-06-15T10:25:08.109Z,12.83
2019-06-15T10:27:37.584Z,12.40
2019-06-15T10:30:07.780Z,11.87
2019-06-15T10:32:37.301Z,13.07
2019-06-15T10:35:07.237Z,11.83
2019-06-15T10:37:36.726Z,10.90
2019-06-15T10:40:08.080Z,11.20
2019-06-15T10:42:37.584Z,11.90
2019-06-15T10:45:07.487Z,12.17
2019-06-15T10:47:36.956Z,11.50
2019-06-15T10:50:09.315Z,11.90
2019-06-15T10:52:38.853Z,11.80
2019-06-15T10:55:08.371Z,9.97
2019-06-15T10:57:37.864Z,12.13
2019-06-15T11:00:11.992Z,11.93
2019-06-15T11:02:41.489Z,12.47
2019-06-15T11:05:11.488Z,11.40
2019-06-15T11:07:40.973Z,11.60
2019-06-15T11:10:13.467Z,10.47
2019-06-15T11:12:46.817Z,13.40
2019-06-15T11:15:14.102Z,10.97
2019-06-15T11:17:43.717Z,11.20
2019-06-15T11:20:13.485Z,14.30
2019-06-15T11:22:42.963Z,10.40
2019-06-15T11:25:12.480Z,11.70
2019-06-15T11:27:41.968Z,12.37
2019-06-15T11:30:14.224Z,11.73
2019-06-15T11:32:42.769Z,12.77
2019-06-15T11:35:12.257Z,10.87
2019-06-15T11:37:41.832Z,18.13
2019-06-15T11:40:11.328Z,12.23
2019-06-15T11:42:40.793Z,14.53
2019-06-15T11:45:10.302Z,11.40
2019-06-15T11:47:39.700Z,12.87
2019-06-15T11:50:11.876Z,11.87
2019-06-15T11:52:40.399Z,15.40
2019-06-15T11:55:09.906Z,12.93
2019-06-15T11:57:39.386Z,12.43
2019-06-15T12:00:09.369Z,12.83
2019-06-15T12:02:38.886Z,13.90
2019-06-15T12:05:08.435Z,13.43
2019-06-15T12:07:37.935Z,14.97
2019-06-15T12:10:07.808Z,13.37
2019-06-15T12:12:37.439Z,14.10
2019-06-15T12:15:08.194Z,14.13
2019-06-15T12:17:37.687Z,13.00
2019-06-15T12:20:07.276Z,13.40
2019-06-15T12:22:36.860Z,14.90
2019-06-15T12:25:06.963Z,16.07
2019-06-15T12:27:36.364Z,14.43
2019-06-15T12:30:09.330Z,14.40
2019-06-15T12:32:38.813Z,14.27
2019-06-15T12:35:29.224Z,17.10
2019-06-15T12:37:58.729Z,14.60
2019-06-15T12:40:28.234Z,14.40
2019-06-15T12:42:57.710Z,14.97
2019-06-15T12:45:27.206Z,16.37
2019-06-15T12:47:56.813Z,15.17
2019-06-15T12:50:26.309Z,16.83
2019-06-15T12:52:55.793Z,16.13
2019-06-15T12:55:25.304Z,17.47
2019-06-15T12:57:54.872Z,16.43
2019-06-15T13:00:29.049Z,16.33
2019-06-15T13:02:58.491Z,16.00
2019-06-15T13:05:28.013Z,17.90
2019-06-15T13:07:57.473Z,16.80
2019-06-15T13:10:26.964Z,16.73
2019-06-15T13:12:56.524Z,15.03
2019-06-15T13:15:26.048Z,16.63
2019-06-15T13:17:55.530Z,16.23
2019-06-15T13:20:25.437Z,16.03
2019-06-15T13:22:55.060Z,14.90
2019-06-15T13:25:43.936Z,14.83
2019-06-15T13:28:13.433Z,14.33
2019-06-15T13:30:42.920Z,13.90
2019-06-15T13:33:12.475Z,15.93
2019-06-15T13:35:41.967Z,13.10
2019-06-15T13:38:11.468Z,12.50
2019-06-15T13:40:40.967Z,14.33
2019-06-15T13:43:10.483Z,14.53
2019-06-15T13:45:39.955Z,15.40
2019-06-15T13:48:11.621Z,16.40
2019-06-15T13:50:40.867Z,13.07
2019-06-15T13:53:10.377Z,13.13
2019-06-15T13:55:39.772Z,13.70
2019-06-15T13:58:09.293Z,11.60
2019-06-15T14:00:38.689Z,13.40
2019-06-15T14:03:08.220Z,13.90
2019-06-15T14:05:37.706Z,11.60
2019-06-15T14:08:07.262Z,10.83
2019-06-15T14:10:36.746Z,10.77
2019-06-15T14:13:06.279Z,10.43
2019-06-15T14:15:35.799Z,10.47
2019-06-15T14:18:05.295Z,10.57
2019-06-15T14:20:34.887Z,10.83
2019-06-15T14:23:04.404Z,12.37
2019-06-15T14:25:34.744Z,11.27
2019-06-15T14:28:04.204Z,11.70
2019-06-15T14:30:33.710Z,11.20
2019-06-15T14:33:03.444Z,11.37
2019-06-15T14:35:32.860Z,11.27
2019-06-15T14:38:02.366Z,11.40
2019-06-15T14:40:31.761Z,10.83
2019-06-15T14:43:01.271Z,12.10
2019-06-15T14:45:30.665Z,12.00
2019-06-15T14:48:00.070Z,9.90
2019-06-15T14:50:29.584Z,10.90
2019-06-15T14:52:59.175Z,14.13
2019-06-15T14:55:28.691Z,10.13
2019-06-15T14:57:58.155Z,12.77
2019-06-15T15:00:27.572Z,9.10
2019-06-15T15:02:57.069Z,9.87
2019-06-15T15:05:27.458Z,11.60
2019-06-15T15:07:57.247Z,9.30
2019-06-15T15:10:26.911Z,13.10
2019-06-15T15:12:56.781Z,10.53
2019-06-15T15:15:26.280Z,9.00
2019-06-15T15:17:57.767Z,9.27
2019-06-15T15:20:27.036Z,11.90
2019-06-15T15:22:56.956Z,10.73
2019-06-15T15:25:26.586Z,9.93
2019-06-15T15:27:57.102Z,9.67
2019-06-15T15:30:37.538Z,12.50
2019-06-15T15:33:07.255Z,12.37
2019-06-15T15:35:37.289Z,10.50
2019-06-15T15:38:07.009Z,12.07
2019-06-15T15:40:36.744Z,13.43
2019-06-15T15:43:07.068Z,10.13
2019-06-15T15:45:37.164Z,9.37
2019-06-15T15:48:07.203Z,9.17
2019-06-15T15:50:37.144Z,8.77
2019-06-15T15:53:06.815Z,8.77
2019-06-15T15:55:36.341Z,11.13
2019-06-15T15:58:06.781Z,11.33
2019-06-15T16:00:36.603Z,8.57
2019-06-15T16:03:07.070Z,9.37
2019-06-15T16:05:37.358Z,11.97
2019-06-15T16:08:07.039Z,11.87
2019-06-15T16:10:37.285Z,8.73
2019-06-15T16:13:07.295Z,10.83
2019-06-15T16:15:37.447Z,8.23
2019-06-15T16:18:07.217Z,9.80
2019-06-15T16:20:37.230Z,11.43
2019-06-15T16:23:07.741Z,8.50
2019-06-15T16:25:37.546Z,10.00
2019-06-15T16:28:07.424Z,11.30
2019-06-15T16:31:00.313Z,12.63
2019-06-15T16:33:08.287Z,9.53
2019-06-15T16:35:37.871Z,15.53
2019-06-15T16:38:07.440Z,8.23
2019-06-15T16:40:38.860Z,11.47
2019-06-15T16:43:10.235Z,11.60
2019-06-15T16:45:39.783Z,11.27
2019-06-15T16:48:09.259Z,10.03
2019-06-15T16:50:38.760Z,12.13
2019-06-15T16:53:08.235Z,10.40
2019-06-15T16:55:38.160Z,9.03
2019-06-15T16:58:07.859Z,10.13
2019-06-15T17:00:37.536Z,9.80
2019-06-15T17:03:19.857Z,14.10
2019-06-15T17:05:38.157Z,10.87
2019-06-15T17:08:07.560Z,9.97
2019-06-15T17:10:41.949Z,10.63
2019-06-15T17:13:11.340Z,11.90
2019-06-15T17:15:40.859Z,13.43
2019-06-15T17:18:10.276Z,13.77
2019-06-15T17:20:49.656Z,7.60
2019-06-15T17:23:19.334Z,14.70
2019-06-15T17:25:48.774Z,7.73
2019-06-15T17:28:18.229Z,9.80
2019-06-15T17:30:47.648Z,10.40
2019-06-15T17:33:17.140Z,12.23
2019-06-15T17:35:56.074Z,11.17
2019-06-15T17:38:17.910Z,12.73
2019-06-15T17:40:47.412Z,11.10
2019-06-15T17:43:16.821Z,8.53
2019-06-15T17:45:46.930Z,9.70
2019-06-15T17:48:17.353Z,14.20
2019-06-15T17:50:47.952Z,8.00
2019-06-15T17:53:17.600Z,10.17
2019-06-15T17:55:47.030Z,8.40
2019-06-15T17:58:17.155Z,10.17
2019-06-15T18:00:47.927Z,13.87
2019-06-15T18:03:17.516Z,9.47
2019-06-15T18:05:47.981Z,15.30
2019-06-15T18:08:18.103Z,13.43
2019-06-15T18:10:48.111Z,12.23
2019-06-15T18:13:17.731Z,13.47
2019-06-15T18:15:47.866Z,14.60
2019-06-15T18:18:17.675Z,11.13
2019-06-15T18:20:47.311Z,10.13
2019-06-15T18:23:17.581Z,10.47
2019-06-15T18:25:47.402Z,13.00
2019-06-15T18:28:17.909Z,10.60
2019-06-15T18:30:48.077Z,19.70
2019-06-15T18:33:18.323Z,27.47
2019-06-15T18:35:47.948Z,25.00
2019-06-15T18:38:17.499Z,13.83
2019-06-15T18:40:46.983Z,12.13
2019-06-15T18:43:16.878Z,12.43
2019-06-15T18:45:47.487Z,13.40
2019-06-15T18:48:17.234Z,13.33
2019-06-15T18:50:46.827Z,15.30
2019-06-15T18:53:16.388Z,12.33
2019-06-15T18:55:47.269Z,14.60
2019-06-15T18:58:17.740Z,12.73
2019-06-15T19:00:47.439Z,12.30
2019-06-15T19:03:17.142Z,9.10
2019-06-15T19:05:47.585Z,12.13
2019-06-15T19:08:17.594Z,14.13
2019-06-15T19:10:47.196Z,20.40
2019-06-15T19:13:16.706Z,15.67
2019-06-15T19:15:47.291Z,19.10
2019-06-15T19:18:17.858Z,10.43
2019-06-15T19:20:47.529Z,11.23
2019-06-15T19:23:17.086Z,11.70
2019-06-15T19:25:47.189Z,11.00
2019-06-15T19:28:16.962Z,13.00
2019-06-15T19:30:47.145Z,10.83
2019-06-15T19:33:16.973Z,12.10
2019-06-15T19:35:46.717Z,14.50
2019-06-15T19:38:16.532Z,14.20
2019-06-15T19:40:46.361Z,10.00
2019-06-15T19:43:16.334Z,10.07
2019-06-15T19:45:46.457Z,15.73
2019-06-15T19:48:17.177Z,21.70
2019-06-15T19:51:06.292Z,13.70
2019-06-15T19:53:36.400Z,16.20
2019-06-15T19:56:07.003Z,10.57
2019-06-15T19:58:36.538Z,12.30
2019-06-15T20:01:06.690Z,11.20
2019-06-15T20:03:36.481Z,11.67
2019-06-15T20:06:06.566Z,18.23
2019-06-15T20:08:36.470Z,10.70
2019-06-15T20:11:07.198Z,10.80
2019-06-15T20:13:37.303Z,12.50
2019-06-15T20:16:07.850Z,10.03
2019-06-15T20:18:37.739Z,11.53
2019-06-15T20:21:07.539Z,12.80
2019-06-15T20:23:37.671Z,11.30
2019-06-15T20:26:07.483Z,18.07
2019-06-15T20:28:37.027Z,13.70
2019-06-15T20:31:06.816Z,14.27
2019-06-15T20:33:36.993Z,9.83
2019-06-15T20:36:06.973Z,14.63
2019-06-15T20:38:36.630Z,17.63
2019-06-15T20:41:07.280Z,12.30
2019-06-15T20:43:37.395Z,9.90
2019-06-15T20:46:07.276Z,13.23
2019-06-15T20:48:37.012Z,15.00
2019-06-15T20:51:09.971Z,12.87
2019-06-15T20:53:37.714Z,11.30
2019-06-15T20:56:07.182Z,10.80
2019-06-15T20:58:37.448Z,16.40
2019-06-15T21:01:07.279Z,14.13
2019-06-15T21:03:36.952Z,17.90
2019-06-15T21:06:06.961Z,11.60
2019-06-15T21:08:36.718Z,11.70
2019-06-15T21:11:07.076Z,11.20
2019-06-15T21:13:37.439Z,11.37
2019-06-15T21:16:07.249Z,11.87
2019-06-15T21:18:37.273Z,11.60
2019-06-15T21:21:07.247Z,11.53
2019-06-15T21:23:37.479Z,13.40
2019-06-15T21:26:07.151Z,11.13
2019-06-15T21:28:37.035Z,10.73
2019-06-15T21:31:07.490Z,13.40
2019-06-15T21:33:36.973Z,13.70
2019-06-15T21:36:06.527Z,14.23
2019-06-15T21:38:36.315Z,15.77
2019-06-15T21:41:07.827Z,13.10
2019-06-15T21:43:37.577Z,11.80
2019-06-15T21:46:07.083Z,10.60
2019-06-15T21:48:36.727Z,15.40
2019-06-15T21:51:07.991Z,21.50
2019-06-15T21:53:37.628Z,19.17
2019-06-15T21:56:07.379Z,14.40
2019-06-15T21:58:37.031Z,14.77
2019-06-15T22:01:26.337Z,12.50
2019-06-15T22:03:55.852Z,13.33
2019-06-15T22:06:26.249Z,14.37
2019-06-15T22:08:56.002Z,14.60
2019-06-15T22:11:26.632Z,13.20
2019-06-15T22:13:57.131Z,15.20
2019-06-15T22:16:27.599Z,14.20
2019-06-15T22:18:57.505Z,9.77
2019-06-15T22:21:28.142Z,11.60
2019-06-15T22:23:57.810Z,12.27
2019-06-15T22:26:27.211Z,17.33
2019-06-15T22:28:57.062Z,16.37
2019-06-15T22:31:27.370Z,12.33
2019-06-15T22:33:56.855Z,10.93
2019-06-15T22:36:28.478Z,9.63
2019-06-15T22:38:57.467Z,14.23
2019-06-15T22:41:26.893Z,12.67
2019-06-15T22:43:56.840Z,13.10
2019-06-15T22:46:26.560Z,12.20
2019-06-15T22:48:56.408Z,14.20
2019-06-15T22:51:27.559Z,11.73
2019-06-15T22:53:57.248Z,17.13
2019-06-15T22:56:36.868Z,14.50
2019-06-15T22:59:06.321Z,14.10
2019-06-15T23:01:36.040Z,14.10
2019-06-15T23:04:06.581Z,13.37
2019-06-15T23:06:40.648Z,12.90
2019-06-15T23:09:07.685Z,17.03
2019-06-15T23:11:37.234Z,17.27
2019-06-15T23:14:07.009Z,12.73
2019-06-15T23:16:36.983Z,11.77
2019-06-15T23:19:07.852Z,11.40
2019-06-15T23:21:37.533Z,11.70
2019-06-15T23:24:07.036Z,13.00
2019-06-15T23:26:36.990Z,13.43
2019-06-15T23:29:07.060Z,12.70
2019-06-15T23:31:36.864Z,11.00
2019-06-15T23:34:07.137Z,21.83
2019-06-15T23:36:54.286Z,13.10
2019-06-15T23:39:16.454Z,14.37
2019-06-15T23:41:46.925Z,14.83
2019-06-15T23:44:16.655Z,13.83
2019-06-15T23:46:46.883Z,11.00
2019-06-15T23:49:16.617Z,11.83
2019-06-15T23:51:46.723Z,17.33
2019-06-15T23:54:16.488Z,11.20
2019-06-15T23:56:47.121Z,13.37
2019-06-15T23:59:17.933Z,13.43
